Hlavní strana
METAR-TAF:

METAR-TAF

Letiště :

Lusaka, Zambie

zeměpisná šířka: 15-19-51S, zeměpisná délka: 028-27-09E, výška: 1152 m

Aktuální stav počasí

Zpráva byla vytvořena před 2 hodinami a 21 minutami, v 23:00 UTC
vítr z různých směrů 1 kt
Teplota 18°C
Vlhkost vzduchu 88%
Tlak 1019 hPa
Viditelnost 10 km a více
Žádná oblačnost pod 1500 m, nevyskytují se cumulonimby.

METAR: FLKK 052300Z VRB01KT CAVOK 18/16 Q1019

Čas: 03:21 (01:21 UTC)

Předpověď počasí

Zpráva byla vytvořena před 3 hodinami a 21 minutami, v 22:00 UTC
Předpověď platná od 06 v 00 UTC do 07 v 06 UTC
vítr z různých směrů 2 kt
Viditelnost 10 km a více
Žádná oblačnost pod 1500 m, nevyskytují se cumulonimby.
Změna
od 06 v 04 UTC do 06 v 08 UTC
Východoseverovýchodní vítr 5 kt
Změna
od 06 v 10 UTC do 06 v 14 UTC
Východojihovýchodní vítr 10 kt
Viditelnost 10 km a více
Oblačno až skoro zataženo ve výšce 3500 ft

TAF: FLKK 052200Z 0600/0706 VRB02KT CAVOK BECMG 0604/0608 07005KT BECMG 0610/0614 11010KT 9999 BKN035

Stav a předpovědi počasí z více než 4 000 letišť (zprávy METAR a TAF).

Červené a žluté tečky na mapě představují dostupné meteorologické stanice.

Když kurzor umístíte na tečku, zobrazí se název stanice.

Pak kliknutím zobrazíte stav a předpověď počasí.

Chcete-li změnit mapu, kliknutím na zelené tlačítko se znaménkem +mapu přiblížíte, kliknutím na zelené tlačítko se znaménkem – mapu oddálíte a kliknutím na zelené šipky přejdete na sousední mapy.


METAR-TAF: